sensor_id;sensor_type;location;lat;lon;timestamp;temperature;humidity
14687;DHT22;7431;49.440;11.084;2023-11-19T00:02:07;5.30;99.90
14687;DHT22;7431;49.440;11.084;2023-11-19T00:04:37;5.30;99.90
14687;DHT22;7431;49.440;11.084;2023-11-19T00:07:04;5.30;99.90
14687;DHT22;7431;49.440;11.084;2023-11-19T00:09:32;5.30;99.90
14687;DHT22;7431;49.440;11.084;2023-11-19T00:11:58;5.30;99.90
14687;DHT22;7431;49.440;11.084;2023-11-19T00:14:25;5.30;99.90
14687;DHT22;7431;49.440;11.084;2023-11-19T00:16:51;5.30;99.90
14687;DHT22;7431;49.440;11.084;2023-11-19T00:19:17;5.30;99.90
14687;DHT22;7431;49.440;11.084;2023-11-19T00:21:42;5.30;99.90
14687;DHT22;7431;49.440;11.084;2023-11-19T00:24:08;5.30;99.90
14687;DHT22;7431;49.440;11.084;2023-11-19T00:26:34;5.40;99.90
14687;DHT22;7431;49.440;11.084;2023-11-19T00:29:00;5.40;99.90
14687;DHT22;7431;49.440;11.084;2023-11-19T00:31:25;5.40;99.90
14687;DHT22;7431;49.440;11.084;2023-11-19T00:33:54;5.40;99.90
14687;DHT22;7431;49.440;11.084;2023-11-19T00:36:19;5.40;99.90
14687;DHT22;7431;49.440;11.084;2023-11-19T00:38:45;5.40;99.90
14687;DHT22;7431;49.440;11.084;2023-11-19T00:41:11;5.40;99.90
14687;DHT22;7431;49.440;11.084;2023-11-19T00:43:37;5.50;99.90
14687;DHT22;7431;49.440;11.084;2023-11-19T00:46:03;5.50;99.90
14687;DHT22;7431;49.440;11.084;2023-11-19T00:48:29;5.50;99.90
14687;DHT22;7431;49.440;11.084;2023-11-19T00:50:55;5.50;99.90
14687;DHT22;7431;49.440;11.084;2023-11-19T00:53:20;5.50;99.90
14687;DHT22;7431;49.440;11.084;2023-11-19T00:55:46;5.50;99.90
14687;DHT22;7431;49.440;11.084;2023-11-19T00:58:11;5.50;99.90
14687;DHT22;7431;49.440;11.084;2023-11-19T01:00:37;6.40;99.90
14687;DHT22;7431;49.440;11.084;2023-11-19T01:03:02;5.50;99.90
14687;DHT22;7431;49.440;11.084;2023-11-19T01:05:28;5.50;99.90
14687;DHT22;7431;49.440;11.084;2023-11-19T01:07:54;5.50;99.90
14687;DHT22;7431;49.440;11.084;2023-11-19T01:10:20;5.50;99.90
14687;DHT22;7431;49.440;11.084;2023-11-19T01:12:46;5.50;99.90
14687;DHT22;7431;49.440;11.084;2023-11-19T01:15:12;5.50;99.90
14687;DHT22;7431;49.440;11.084;2023-11-19T01:17:38;5.50;99.90
14687;DHT22;7431;49.440;11.084;2023-11-19T01:20:04;5.50;99.90
14687;DHT22;7431;49.440;11.084;2023-11-19T01:22:32;5.60;99.90
14687;DHT22;7431;49.440;11.084;2023-11-19T01:24:58;5.60;99.90
14687;DHT22;7431;49.440;11.084;2023-11-19T01:27:24;5.60;99.90
14687;DHT22;7431;49.440;11.084;2023-11-19T01:29:50;5.70;99.90
14687;DHT22;7431;49.440;11.084;2023-11-19T01:32:16;5.70;99.90
14687;DHT22;7431;49.440;11.084;2023-11-19T01:34:44;5.70;99.90
14687;DHT22;7431;49.440;11.084;2023-11-19T01:37:10;5.70;99.90
14687;DHT22;7431;49.440;11.084;2023-11-19T01:39:37;5.80;99.90
14687;DHT22;7431;49.440;11.084;2023-11-19T01:42:02;5.80;99.90
14687;DHT22;7431;49.440;11.084;2023-11-19T01:44:28;5.80;99.90
14687;DHT22;7431;49.440;11.084;2023-11-19T01:46:53;5.80;99.90
14687;DHT22;7431;49.440;11.084;2023-11-19T01:49:20;5.70;99.90
14687;DHT22;7431;49.440;11.084;2023-11-19T01:51:46;5.80;99.90
14687;DHT22;7431;49.440;11.084;2023-11-19T01:54:13;5.80;99.90
14687;DHT22;7431;49.440;11.084;2023-11-19T01:56:39;5.80;99.90
14687;DHT22;7431;49.440;11.084;2023-11-19T01:59:10;5.80;99.90
14687;DHT22;7431;49.440;11.084;2023-11-19T02:01:37;5.80;99.90
14687;DHT22;7431;49.440;11.084;2023-11-19T02:04:06;5.80;99.90
14687;DHT22;7431;49.440;11.084;2023-11-19T02:06:33;5.80;99.90
14687;DHT22;7431;49.440;11.084;2023-11-19T02:08:59;5.80;99.90
14687;DHT22;7431;49.440;11.084;2023-11-19T02:11:26;5.80;99.90
14687;DHT22;7431;49.440;11.084;2023-11-19T02:13:55;5.80;99.90
14687;DHT22;7431;49.440;11.084;2023-11-19T02:16:21;5.90;99.90
14687;DHT22;7431;49.440;11.084;2023-11-19T02:18:47;5.90;99.90
14687;DHT22;7431;49.440;11.084;2023-11-19T02:21:13;5.90;99.90
14687;DHT22;7431;49.440;11.084;2023-11-19T02:23:40;5.90;99.90
14687;DHT22;7431;49.440;11.084;2023-11-19T02:26:22;5.90;99.90
14687;DHT22;7431;49.440;11.084;2023-11-19T02:28:51;5.90;99.90
14687;DHT22;7431;49.440;11.084;2023-11-19T02:31:16;5.90;99.90
14687;DHT22;7431;49.440;11.084;2023-11-19T02:33:44;5.90;99.90
14687;DHT22;7431;49.440;11.084;2023-11-19T02:36:12;5.90;99.90
14687;DHT22;7431;49.440;11.084;2023-11-19T02:38:41;5.90;99.90
14687;DHT22;7431;49.440;11.084;2023-11-19T02:41:06;5.90;99.90
14687;DHT22;7431;49.440;11.084;2023-11-19T02:43:33;5.90;99.90
14687;DHT22;7431;49.440;11.084;2023-11-19T02:46:03;5.90;99.90
14687;DHT22;7431;49.440;11.084;2023-11-19T02:48:33;5.90;99.90
14687;DHT22;7431;49.440;11.084;2023-11-19T02:51:01;5.90;99.90
14687;DHT22;7431;49.440;11.084;2023-11-19T02:53:32;6.00;99.90
14687;DHT22;7431;49.440;11.084;2023-11-19T02:55:58;5.90;99.90
14687;DHT22;7431;49.440;11.084;2023-11-19T02:58:31;6.00;99.90
14687;DHT22;7431;49.440;11.084;2023-11-19T03:00:57;6.00;99.90
14687;DHT22;7431;49.440;11.084;2023-11-19T03:03:26;6.00;99.90
14687;DHT22;7431;49.440;11.084;2023-11-19T03:05:56;6.00;99.90
14687;DHT22;7431;49.440;11.084;2023-11-19T03:08:22;6.10;99.90
14687;DHT22;7431;49.440;11.084;2023-11-19T03:10:48;6.10;99.90
14687;DHT22;7431;49.440;11.084;2023-11-19T03:13:14;6.10;99.90
14687;DHT22;7431;49.440;11.084;2023-11-19T03:15:40;6.10;99.90
14687;DHT22;7431;49.440;11.084;2023-11-19T03:18:06;6.10;99.90
14687;DHT22;7431;49.440;11.084;2023-11-19T03:20:35;6.20;99.90
14687;DHT22;7431;49.440;11.084;2023-11-19T03:23:01;6.20;99.90
14687;DHT22;7431;49.440;11.084;2023-11-19T03:25:27;6.20;99.90
14687;DHT22;7431;49.440;11.084;2023-11-19T03:27:59;6.20;99.90
14687;DHT22;7431;49.440;11.084;2023-11-19T03:30:24;6.20;99.90
14687;DHT22;7431;49.440;11.084;2023-11-19T03:32:50;6.20;99.90
14687;DHT22;7431;49.440;11.084;2023-11-19T03:35:16;6.20;99.90
14687;DHT22;7431;49.440;11.084;2023-11-19T03:37:42;6.20;99.90
14687;DHT22;7431;49.440;11.084;2023-11-19T03:40:09;6.20;99.90
14687;DHT22;7431;49.440;11.084;2023-11-19T03:42:35;6.20;99.90
14687;DHT22;7431;49.440;11.084;2023-11-19T03:45:01;6.20;99.90
14687;DHT22;7431;49.440;11.084;2023-11-19T03:47:29;6.20;99.90
14687;DHT22;7431;49.440;11.084;2023-11-19T03:49:54;6.20;99.90
14687;DHT22;7431;49.440;11.084;2023-11-19T03:52:20;6.20;99.90
14687;DHT22;7431;49.440;11.084;2023-11-19T03:54:45;6.20;99.90
14687;DHT22;7431;49.440;11.084;2023-11-19T03:57:12;6.90;99.90
14687;DHT22;7431;49.440;11.084;2023-11-19T03:59:38;6.20;99.90
14687;DHT22;7431;49.440;11.084;2023-11-19T04:02:03;6.20;99.90
14687;DHT22;7431;49.440;11.084;2023-11-19T04:04:29;6.20;99.90
14687;DHT22;7431;49.440;11.084;2023-11-19T04:06:55;6.20;99.90
14687;DHT22;7431;49.440;11.084;2023-11-19T04:09:24;6.20;99.90
14687;DHT22;7431;49.440;11.084;2023-11-19T04:11:50;6.20;99.90
14687;DHT22;7431;49.440;11.084;2023-11-19T04:14:15;6.30;99.90
14687;DHT22;7431;49.440;11.084;2023-11-19T04:16:44;6.30;99.90
14687;DHT22;7431;49.440;11.084;2023-11-19T04:19:10;6.30;99.90
14687;DHT22;7431;49.440;11.084;2023-11-19T04:21:35;6.30;99.90
14687;DHT22;7431;49.440;11.084;2023-11-19T04:24:01;6.40;99.90
14687;DHT22;7431;49.440;11.084;2023-11-19T04:26:26;6.50;99.90
14687;DHT22;7431;49.440;11.084;2023-11-19T04:28:52;6.50;99.90
14687;DHT22;7431;49.440;11.084;2023-11-19T04:31:18;6.50;99.90
14687;DHT22;7431;49.440;11.084;2023-11-19T04:33:43;6.50;99.90
14687;DHT22;7431;49.440;11.084;2023-11-19T04:36:10;6.60;99.90
14687;DHT22;7431;49.440;11.084;2023-11-19T04:38:35;6.60;99.90
14687;DHT22;7431;49.440;11.084;2023-11-19T04:41:02;6.70;99.90
14687;DHT22;7431;49.440;11.084;2023-11-19T04:43:31;6.70;99.90
14687;DHT22;7431;49.440;11.084;2023-11-19T04:45:56;6.70;99.90
14687;DHT22;7431;49.440;11.084;2023-11-19T04:48:23;6.80;99.90
14687;DHT22;7431;49.440;11.084;2023-11-19T04:50:48;6.80;99.90
14687;DHT22;7431;49.440;11.084;2023-11-19T04:53:14;6.80;99.90
14687;DHT22;7431;49.440;11.084;2023-11-19T04:55:41;6.80;99.90
14687;DHT22;7431;49.440;11.084;2023-11-19T04:58:06;6.80;99.90
14687;DHT22;7431;49.440;11.084;2023-11-19T05:00:32;6.80;99.90
14687;DHT22;7431;49.440;11.084;2023-11-19T05:02:58;6.80;99.90
14687;DHT22;7431;49.440;11.084;2023-11-19T05:05:23;6.80;99.90
14687;DHT22;7431;49.440;11.084;2023-11-19T05:07:49;6.90;99.90
14687;DHT22;7431;49.440;11.084;2023-11-19T05:10:15;6.90;99.90
14687;DHT22;7431;49.440;11.084;2023-11-19T05:12:40;6.90;99.90
14687;DHT22;7431;49.440;11.084;2023-11-19T05:15:06;6.90;99.90
14687;DHT22;7431;49.440;11.084;2023-11-19T05:17:33;6.90;99.90
14687;DHT22;7431;49.440;11.084;2023-11-19T05:19:58;6.90;99.90
14687;DHT22;7431;49.440;11.084;2023-11-19T05:22:24;6.90;99.90
14687;DHT22;7431;49.440;11.084;2023-11-19T05:24:49;6.90;99.90
14687;DHT22;7431;49.440;11.084;2023-11-19T05:27:15;6.90;99.90
14687;DHT22;7431;49.440;11.084;2023-11-19T05:29:40;6.90;99.90
14687;DHT22;7431;49.440;11.084;2023-11-19T05:32:08;6.90;99.90
14687;DHT22;7431;49.440;11.084;2023-11-19T05:34:33;7.00;99.90
14687;DHT22;7431;49.440;11.084;2023-11-19T05:36:59;7.00;99.90
14687;DHT22;7431;49.440;11.084;2023-11-19T05:39:25;7.00;99.90
14687;DHT22;7431;49.440;11.084;2023-11-19T05:41:51;7.00;99.90
14687;DHT22;7431;49.440;11.084;2023-11-19T05:44:17;7.00;99.90
14687;DHT22;7431;49.440;11.084;2023-11-19T05:46:42;7.10;99.90
14687;DHT22;7431;49.440;11.084;2023-11-19T05:49:09;7.10;99.90
14687;DHT22;7431;49.440;11.084;2023-11-19T05:51:38;7.10;99.90
14687;DHT22;7431;49.440;11.084;2023-11-19T05:54:08;7.10;99.90
14687;DHT22;7431;49.440;11.084;2023-11-19T05:56:35;7.20;99.90
14687;DHT22;7431;49.440;11.084;2023-11-19T05:59:01;7.20;99.90
14687;DHT22;7431;49.440;11.084;2023-11-19T06:01:29;7.30;99.90
14687;DHT22;7431;49.440;11.084;2023-11-19T06:03:54;7.30;99.90
14687;DHT22;7431;49.440;11.084;2023-11-19T06:06:20;7.30;99.90
14687;DHT22;7431;49.440;11.084;2023-11-19T06:08:46;7.30;99.90
14687;DHT22;7431;49.440;11.084;2023-11-19T06:11:12;7.30;99.90
14687;DHT22;7431;49.440;11.084;2023-11-19T06:13:43;7.40;99.90
14687;DHT22;7431;49.440;11.084;2023-11-19T06:16:09;7.40;99.90
14687;DHT22;7431;49.440;11.084;2023-11-19T06:18:35;7.50;99.90
14687;DHT22;7431;49.440;11.084;2023-11-19T06:21:01;7.50;99.90
14687;DHT22;7431;49.440;11.084;2023-11-19T06:23:27;7.50;99.90
14687;DHT22;7431;49.440;11.084;2023-11-19T06:25:52;7.50;99.90
14687;DHT22;7431;49.440;11.084;2023-11-19T06:28:17;7.60;99.90
14687;DHT22;7431;49.440;11.084;2023-11-19T06:30:43;7.60;99.90
14687;DHT22;7431;49.440;11.084;2023-11-19T06:33:09;7.60;99.90
14687;DHT22;7431;49.440;11.084;2023-11-19T06:35:34;7.70;99.90
14687;DHT22;7431;49.440;11.084;2023-11-19T06:38:03;7.70;99.90
14687;DHT22;7431;49.440;11.084;2023-11-19T06:40:33;7.70;99.90
14687;DHT22;7431;49.440;11.084;2023-11-19T06:43:00;7.80;99.90
14687;DHT22;7431;49.440;11.084;2023-11-19T06:45:26;7.80;99.90
14687;DHT22;7431;49.440;11.084;2023-11-19T06:47:51;7.80;99.90
14687;DHT22;7431;49.440;11.084;2023-11-19T06:50:17;7.90;99.90
14687;DHT22;7431;49.440;11.084;2023-11-19T06:52:44;7.90;99.90
14687;DHT22;7431;49.440;11.084;2023-11-19T06:55:10;7.90;99.90
14687;DHT22;7431;49.440;11.084;2023-11-19T06:57:36;8.00;99.90
14687;DHT22;7431;49.440;11.084;2023-11-19T07:00:02;8.10;99.90
14687;DHT22;7431;49.440;11.084;2023-11-19T07:02:30;8.10;99.90
14687;DHT22;7431;49.440;11.084;2023-11-19T07:04:56;8.10;99.90
14687;DHT22;7431;49.440;11.084;2023-11-19T07:07:22;8.10;99.90
14687;DHT22;7431;49.440;11.084;2023-11-19T07:09:47;8.20;99.90
14687;DHT22;7431;49.440;11.084;2023-11-19T07:12:13;8.20;99.90
14687;DHT22;7431;49.440;11.084;2023-11-19T07:14:39;8.30;99.90
14687;DHT22;7431;49.440;11.084;2023-11-19T07:17:05;8.80;99.90
14687;DHT22;7431;49.440;11.084;2023-11-19T07:19:31;8.30;99.90
14687;DHT22;7431;49.440;11.084;2023-11-19T07:21:57;8.40;99.90
14687;DHT22;7431;49.440;11.084;2023-11-19T07:24:22;8.40;99.90
14687;DHT22;7431;49.440;11.084;2023-11-19T07:26:48;8.50;99.90
14687;DHT22;7431;49.440;11.084;2023-11-19T07:29:14;8.50;99.90
14687;DHT22;7431;49.440;11.084;2023-11-19T07:31:42;8.90;99.90
14687;DHT22;7431;49.440;11.084;2023-11-19T07:34:09;8.60;99.90
14687;DHT22;7431;49.440;11.084;2023-11-19T07:36:36;8.70;99.90
14687;DHT22;7431;49.440;11.084;2023-11-19T07:39:02;8.70;99.90
14687;DHT22;7431;49.440;11.084;2023-11-19T07:41:28;8.70;99.90
14687;DHT22;7431;49.440;11.084;2023-11-19T07:43:55;8.70;99.90
14687;DHT22;7431;49.440;11.084;2023-11-19T07:46:20;8.80;99.90
14687;DHT22;7431;49.440;11.084;2023-11-19T07:48:46;8.90;99.90
14687;DHT22;7431;49.440;11.084;2023-11-19T07:51:12;8.90;99.90
14687;DHT22;7431;49.440;11.084;2023-11-19T07:53:38;9.00;99.90
14687;DHT22;7431;49.440;11.084;2023-11-19T07:56:04;9.00;99.90
14687;DHT22;7431;49.440;11.084;2023-11-19T07:58:30;9.00;99.90
14687;DHT22;7431;49.440;11.084;2023-11-19T08:00:56;9.00;99.90
14687;DHT22;7431;49.440;11.084;2023-11-19T08:03:22;9.00;99.90
14687;DHT22;7431;49.440;11.084;2023-11-19T08:05:47;9.50;99.90
14687;DHT22;7431;49.440;11.084;2023-11-19T08:08:13;9.10;99.90
14687;DHT22;7431;49.440;11.084;2023-11-19T08:10:39;9.10;99.90
14687;DHT22;7431;49.440;11.084;2023-11-19T08:13:05;9.20;99.90
14687;DHT22;7431;49.440;11.084;2023-11-19T08:15:31;9.20;99.90
14687;DHT22;7431;49.440;11.084;2023-11-19T08:17:56;9.30;99.90
14687;DHT22;7431;49.440;11.084;2023-11-19T08:20:22;9.40;99.90
14687;DHT22;7431;49.440;11.084;2023-11-19T08:22:48;9.50;99.90
14687;DHT22;7431;49.440;11.084;2023-11-19T08:25:14;9.60;99.90
14687;DHT22;7431;49.440;11.084;2023-11-19T08:27:40;9.70;99.90
14687;DHT22;7431;49.440;11.084;2023-11-19T08:30:06;9.70;99.90
14687;DHT22;7431;49.440;11.084;2023-11-19T08:32:32;9.80;99.90
14687;DHT22;7431;49.440;11.084;2023-11-19T08:34:58;9.90;99.90
14687;DHT22;7431;49.440;11.084;2023-11-19T08:37:24;9.90;99.90
14687;DHT22;7431;49.440;11.084;2023-11-19T08:39:50;10.10;99.90
14687;DHT22;7431;49.440;11.084;2023-11-19T08:42:16;10.10;99.90
14687;DHT22;7431;49.440;11.084;2023-11-19T08:44:43;10.20;99.90
14687;DHT22;7431;49.440;11.084;2023-11-19T08:47:12;10.30;99.90
14687;DHT22;7431;49.440;11.084;2023-11-19T08:49:39;10.30;99.90
14687;DHT22;7431;49.440;11.084;2023-11-19T08:52:05;10.40;99.90
14687;DHT22;7431;49.440;11.084;2023-11-19T08:54:32;10.50;99.90
14687;DHT22;7431;49.440;11.084;2023-11-19T08:56:58;10.60;99.90
14687;DHT22;7431;49.440;11.084;2023-11-19T08:59:24;10.70;99.90
14687;DHT22;7431;49.440;11.084;2023-11-19T09:01:58;10.90;99.90
14687;DHT22;7431;49.440;11.084;2023-11-19T09:04:23;11.10;99.90
14687;DHT22;7431;49.440;11.084;2023-11-19T09:06:49;11.40;99.90
14687;DHT22;7431;49.440;11.084;2023-11-19T09:09:14;11.60;99.90
14687;DHT22;7431;49.440;11.084;2023-11-19T09:11:43;12.10;99.90
14687;DHT22;7431;49.440;11.084;2023-11-19T09:14:09;12.20;99.90
14687;DHT22;7431;49.440;11.084;2023-11-19T09:16:34;12.70;99.90
14687;DHT22;7431;49.440;11.084;2023-11-19T09:19:00;13.00;99.90
14687;DHT22;7431;49.440;11.084;2023-11-19T09:21:27;13.00;99.90
14687;DHT22;7431;49.440;11.084;2023-11-19T09:23:56;13.00;99.90
14687;DHT22;7431;49.440;11.084;2023-11-19T09:26:22;13.10;99.90
14687;DHT22;7431;49.440;11.084;2023-11-19T09:29:15;13.30;99.90
14687;DHT22;7431;49.440;11.084;2023-11-19T09:31:41;13.60;99.90
14687;DHT22;7431;49.440;11.084;2023-11-19T09:34:07;13.70;99.90
14687;DHT22;7431;49.440;11.084;2023-11-19T09:36:33;13.90;99.90
14687;DHT22;7431;49.440;11.084;2023-11-19T09:38:58;14.10;99.90
14687;DHT22;7431;49.440;11.084;2023-11-19T09:41:46;14.60;99.90
14687;DHT22;7431;49.440;11.084;2023-11-19T09:44:15;14.00;99.90
14687;DHT22;7431;49.440;11.084;2023-11-19T09:46:43;13.80;99.90
14687;DHT22;7431;49.440;11.084;2023-11-19T09:49:10;14.10;99.90
14687;DHT22;7431;49.440;11.084;2023-11-19T09:51:37;13.40;99.90
14687;DHT22;7431;49.440;11.084;2023-11-19T09:54:03;13.30;99.90
14687;DHT22;7431;49.440;11.084;2023-11-19T09:56:33;13.30;99.90
14687;DHT22;7431;49.440;11.084;2023-11-19T09:58:59;13.30;99.90
14687;DHT22;7431;49.440;11.084;2023-11-19T10:01:25;13.30;99.90
14687;DHT22;7431;49.440;11.084;2023-11-19T10:03:52;13.30;99.90
14687;DHT22;7431;49.440;11.084;2023-11-19T10:06:20;13.40;99.90
14687;DHT22;7431;49.440;11.084;2023-11-19T10:08:49;13.50;99.90
14687;DHT22;7431;49.440;11.084;2023-11-19T10:11:15;13.50;99.90
14687;DHT22;7431;49.440;11.084;2023-11-19T10:13:42;14.50;99.90
14687;DHT22;7431;49.440;11.084;2023-11-19T10:16:09;13.60;99.90
14687;DHT22;7431;49.440;11.084;2023-11-19T10:18:37;13.70;99.90
14687;DHT22;7431;49.440;11.084;2023-11-19T10:21:04;13.70;99.90
14687;DHT22;7431;49.440;11.084;2023-11-19T10:23:31;13.70;99.90
14687;DHT22;7431;49.440;11.084;2023-11-19T10:26:03;13.80;99.90
14687;DHT22;7431;49.440;11.084;2023-11-19T10:28:45;13.70;99.90
14687;DHT22;7431;49.440;11.084;2023-11-19T10:31:15;13.50;99.90
14687;DHT22;7431;49.440;11.084;2023-11-19T10:33:41;13.40;99.90
14687;DHT22;7431;49.440;11.084;2023-11-19T10:36:07;13.20;99.90
14687;DHT22;7431;49.440;11.084;2023-11-19T10:38:33;13.10;99.90
14687;DHT22;7431;49.440;11.084;2023-11-19T10:40:59;13.10;99.90
14687;DHT22;7431;49.440;11.084;2023-11-19T10:43:25;13.00;99.90
14687;DHT22;7431;49.440;11.084;2023-11-19T10:46:10;12.80;99.90
14687;DHT22;7431;49.440;11.084;2023-11-19T10:48:36;12.70;99.90
14687;DHT22;7431;49.440;11.084;2023-11-19T10:51:05;12.80;99.90
14687;DHT22;7431;49.440;11.084;2023-11-19T10:53:37;13.20;99.90
14687;DHT22;7431;49.440;11.084;2023-11-19T10:56:08;13.70;99.90
14687;DHT22;7431;49.440;11.084;2023-11-19T10:58:36;14.10;99.90
14687;DHT22;7431;49.440;11.084;2023-11-19T11:01:24;14.90;99.90
14687;DHT22;7431;49.440;11.084;2023-11-19T11:03:52;14.20;99.90
14687;DHT22;7431;49.440;11.084;2023-11-19T11:06:19;14.10;99.90
14687;DHT22;7431;49.440;11.084;2023-11-19T11:08:48;14.20;99.90
14687;DHT22;7431;49.440;11.084;2023-11-19T11:11:15;14.40;99.90
14687;DHT22;7431;49.440;11.084;2023-11-19T11:13:47;14.60;99.90
14687;DHT22;7431;49.440;11.084;2023-11-19T11:16:14;14.40;93.60
14687;DHT22;7431;49.440;11.084;2023-11-19T11:18:40;14.30;1.00
14687;DHT22;7431;49.440;11.084;2023-11-19T11:21:14;14.20;1.00
14687;DHT22;7431;49.440;11.084;2023-11-19T11:26:36;13.90;63.10
14687;DHT22;7431;49.440;11.084;2023-11-19T11:29:19;14.00;1.00
14687;DHT22;7431;49.440;11.084;2023-11-19T11:34:51;14.00;1.00
14687;DHT22;7431;49.440;11.084;2023-11-19T11:40:15;14.00;1.00
14687;DHT22;7431;49.440;11.084;2023-11-19T11:42:41;14.20;1.00
14687;DHT22;7431;49.440;11.084;2023-11-19T11:45:14;14.30;99.90
14687;DHT22;7431;49.440;11.084;2023-11-19T11:58:03;14.90;99.90
14687;DHT22;7431;49.440;11.084;2023-11-19T12:00:32;14.70;1.00
14687;DHT22;7431;49.440;11.084;2023-11-19T12:03:02;14.40;1.00
14687;DHT22;7431;49.440;11.084;2023-11-19T12:05:30;14.30;1.00
14687;DHT22;7431;49.440;11.084;2023-11-19T12:08:02;14.20;23.60
14687;DHT22;7431;49.440;11.084;2023-11-19T12:10:30;14.10;99.90
14687;DHT22;7431;49.440;11.084;2023-11-19T12:13:05;14.00;99.90
14687;DHT22;7431;49.440;11.084;2023-11-19T12:18:32;13.90;72.30
14687;DHT22;7431;49.440;11.084;2023-11-19T12:21:01;13.90;99.90
14687;DHT22;7431;49.440;11.084;2023-11-19T12:23:30;13.90;1.00
14687;DHT22;7431;49.440;11.084;2023-11-19T12:25:57;13.90;99.90
14687;DHT22;7431;49.440;11.084;2023-11-19T12:28:23;14.00;99.90
14687;DHT22;7431;49.440;11.084;2023-11-19T12:30:53;14.30;1.00
14687;DHT22;7431;49.440;11.084;2023-11-19T12:33:19;14.40;1.00
14687;DHT22;7431;49.440;11.084;2023-11-19T12:35:48;14.70;8.70
14687;DHT22;7431;49.440;11.084;2023-11-19T12:38:20;14.90;1.00
14687;DHT22;7431;49.440;11.084;2023-11-19T12:41:05;15.00;99.90
14687;DHT22;7431;49.440;11.084;2023-11-19T12:43:32;15.10;1.00
14687;DHT22;7431;49.440;11.084;2023-11-19T12:45:59;15.10;99.90
14687;DHT22;7431;49.440;11.084;2023-11-19T12:48:25;15.20;1.00
14687;DHT22;7431;49.440;11.084;2023-11-19T12:50:58;15.20;1.00
14687;DHT22;7431;49.440;11.084;2023-11-19T12:53:26;15.00;1.00
14687;DHT22;7431;49.440;11.084;2023-11-19T12:55:52;14.80;1.00
14687;DHT22;7431;49.440;11.084;2023-11-19T12:58:29;14.70;2.00
14687;DHT22;7431;49.440;11.084;2023-11-19T13:01:00;14.60;99.90
14687;DHT22;7431;49.440;11.084;2023-11-19T13:03:30;14.30;1.00
14687;DHT22;7431;49.440;11.084;2023-11-19T13:06:04;14.30;1.00
14687;DHT22;7431;49.440;11.084;2023-11-19T13:08:44;14.40;1.00
14687;DHT22;7431;49.440;11.084;2023-11-19T13:11:12;14.40;1.00
14687;DHT22;7431;49.440;11.084;2023-11-19T13:14:14;14.40;99.90
14687;DHT22;7431;49.440;11.084;2023-11-19T13:16:40;14.30;99.90
14687;DHT22;7431;49.440;11.084;2023-11-19T13:19:05;14.30;1.00
14687;DHT22;7431;49.440;11.084;2023-11-19T13:21:31;14.20;99.90
14687;DHT22;7431;49.440;11.084;2023-11-19T13:23:57;14.30;1.00
14687;DHT22;7431;49.440;11.084;2023-11-19T13:26:23;14.40;1.00
14687;DHT22;7431;49.440;11.084;2023-11-19T13:28:48;14.50;99.90
14687;DHT22;7431;49.440;11.084;2023-11-19T13:31:15;14.60;99.90
14687;DHT22;7431;49.440;11.084;2023-11-19T13:33:49;14.70;1.00
14687;DHT22;7431;49.440;11.084;2023-11-19T13:36:15;14.90;1.00
14687;DHT22;7431;49.440;11.084;2023-11-19T13:38:41;15.20;1.00
14687;DHT22;7431;49.440;11.084;2023-11-19T13:41:07;15.20;99.90
14687;DHT22;7431;49.440;11.084;2023-11-19T13:43:35;15.40;1.00
14687;DHT22;7431;49.440;11.084;2023-11-19T13:46:01;15.40;1.00
14687;DHT22;7431;49.440;11.084;2023-11-19T13:48:26;15.40;1.00
14687;DHT22;7431;49.440;11.084;2023-11-19T13:50:55;15.50;1.00
14687;DHT22;7431;49.440;11.084;2023-11-19T13:53:21;15.50;5.30
14687;DHT22;7431;49.440;11.084;2023-11-19T13:55:46;15.40;99.90
14687;DHT22;7431;49.440;11.084;2023-11-19T13:58:13;15.20;1.00
14687;DHT22;7431;49.440;11.084;2023-11-19T14:00:39;14.90;1.00
14687;DHT22;7431;49.440;11.084;2023-11-19T14:03:05;14.70;1.00
14687;DHT22;7431;49.440;11.084;2023-11-19T14:05:31;14.60;1.00
14687;DHT22;7431;49.440;11.084;2023-11-19T14:07:57;15.10;1.00
14687;DHT22;7431;49.440;11.084;2023-11-19T14:10:29;14.60;32.70
14687;DHT22;7431;49.440;11.084;2023-11-19T14:12:54;14.90;1.00
14687;DHT22;7431;49.440;11.084;2023-11-19T14:15:20;14.30;12.90
14687;DHT22;7431;49.440;11.084;2023-11-19T14:17:45;14.10;99.90
14687;DHT22;7431;49.440;11.084;2023-11-19T14:20:11;14.00;1.00
14687;DHT22;7431;49.440;11.084;2023-11-19T14:22:41;13.90;1.00
14687;DHT22;7431;49.440;11.084;2023-11-19T14:25:08;13.80;99.90
14687;DHT22;7431;49.440;11.084;2023-11-19T14:27:36;13.50;1.00
14687;DHT22;7431;49.440;11.084;2023-11-19T14:30:04;13.40;1.00
14687;DHT22;7431;49.440;11.084;2023-11-19T14:32:30;13.20;1.00
14687;DHT22;7431;49.440;11.084;2023-11-19T14:34:56;13.10;99.90
14687;DHT22;7431;49.440;11.084;2023-11-19T14:37:22;13.00;99.90
14687;DHT22;7431;49.440;11.084;2023-11-19T14:39:47;12.90;1.00
14687;DHT22;7431;49.440;11.084;2023-11-19T14:42:16;12.90;1.00
14687;DHT22;7431;49.440;11.084;2023-11-19T14:44:42;12.90;99.90
14687;DHT22;7431;49.440;11.084;2023-11-19T14:47:07;12.90;99.90
14687;DHT22;7431;49.440;11.084;2023-11-19T14:49:35;12.70;1.00
14687;DHT22;7431;49.440;11.084;2023-11-19T14:52:00;12.70;1.00
14687;DHT22;7431;49.440;11.084;2023-11-19T14:54:26;12.60;1.00
14687;DHT22;7431;49.440;11.084;2023-11-19T14:56:52;12.70;1.00
14687;DHT22;7431;49.440;11.084;2023-11-19T14:59:17;12.70;1.00
14687;DHT22;7431;49.440;11.084;2023-11-19T15:01:45;12.80;99.90
14687;DHT22;7431;49.440;11.084;2023-11-19T15:04:10;12.90;99.90
14687;DHT22;7431;49.440;11.084;2023-11-19T15:06:37;13.00;99.90
14687;DHT22;7431;49.440;11.084;2023-11-19T15:09:04;13.10;1.00
14687;DHT22;7431;49.440;11.084;2023-11-19T15:11:29;13.10;99.90
14687;DHT22;7431;49.440;11.084;2023-11-19T15:13:55;13.00;78.70
14687;DHT22;7431;49.440;11.084;2023-11-19T15:16:23;12.90;29.60
14687;DHT22;7431;49.440;11.084;2023-11-19T15:18:57;12.70;1.00
14687;DHT22;7431;49.440;11.084;2023-11-19T15:21:29;12.50;1.00
14687;DHT22;7431;49.440;11.084;2023-11-19T15:23:58;12.30;1.00
14687;DHT22;7431;49.440;11.084;2023-11-19T15:26:23;12.20;1.00
14687;DHT22;7431;49.440;11.084;2023-11-19T15:28:49;12.10;99.90
14687;DHT22;7431;49.440;11.084;2023-11-19T15:31:15;12.10;99.90
14687;DHT22;7431;49.440;11.084;2023-11-19T15:33:42;12.00;1.00
14687;DHT22;7431;49.440;11.084;2023-11-19T15:36:08;12.00;1.00
14687;DHT22;7431;49.440;11.084;2023-11-19T15:38:34;12.00;1.00
14687;DHT22;7431;49.440;11.084;2023-11-19T15:41:00;12.00;1.00
14687;DHT22;7431;49.440;11.084;2023-11-19T15:43:25;12.00;1.00
14687;DHT22;7431;49.440;11.084;2023-11-19T15:45:51;11.80;1.00
14687;DHT22;7431;49.440;11.084;2023-11-19T15:48:16;11.60;99.90
14687;DHT22;7431;49.440;11.084;2023-11-19T15:50:43;11.50;1.00
14687;DHT22;7431;49.440;11.084;2023-11-19T15:53:10;11.40;1.00
14687;DHT22;7431;49.440;11.084;2023-11-19T15:55:36;11.30;1.00
14687;DHT22;7431;49.440;11.084;2023-11-19T15:58:01;11.20;1.00
14687;DHT22;7431;49.440;11.084;2023-11-19T16:00:27;11.20;1.00
14687;DHT22;7431;49.440;11.084;2023-11-19T16:02:53;11.20;1.00
14687;DHT22;7431;49.440;11.084;2023-11-19T16:05:19;11.20;1.00